Terminal Aerodrome Forecast
Issued by NWS

Home | Current Version | Previous Version | Text Only | Print | Product List | Glossary On
Versions: 1 2 3 4 5 6 7 8 9 10 11 12 13
000
FTUS43 KBIS 171726
TAFJMS
TAF
KJMS 171726Z 1718/1818 23013G22KT P6SM SKC
     FM180000 21009KT P6SM SKC
     FM180400 21010G19KT P6SM SKC WS020/24040KT
     FM181100 27010KT P6SM FEW250 WS020/30040KT
     FM181300 29017G25KT P6SM FEW250 WS020/30040KT
     FM181500 29024G35KT P6SM FEW250=

USA.gov is the U.S. government's official web portal to all federal, state and local government web resources and services.